createdAt,value
2023-05-09T05:03:16.168Z,16.71
2023-05-09T05:04:16.028Z,28.29
2023-05-09T05:05:16.155Z,22.41
2023-05-09T05:06:16.936Z,25.12
2023-05-09T05:07:15.908Z,25.33
2023-05-09T05:08:16.887Z,26.37
2023-05-09T05:09:15.884Z,26.94
2023-05-09T05:10:16.871Z,28.07
2023-05-09T05:11:16.893Z,28.87
2023-05-09T05:12:16.847Z,30.06
2023-05-09T05:13:16.868Z,27.57
2023-05-09T05:14:15.828Z,28.02
2023-05-09T05:15:16.983Z,29.25
2023-05-09T05:16:16.825Z,28.19
2023-05-09T05:17:16.829Z,27.71
2023-05-09T05:18:15.798Z,23.76
2023-05-09T05:19:15.840Z,24.76
2023-05-09T05:20:16.795Z,25.03
2023-05-09T05:21:15.777Z,22.34
2023-05-09T05:22:15.820Z,22.33
2023-05-09T05:23:16.778Z,23.89
2023-05-09T05:24:15.786Z,22.95
2023-05-09T05:25:17.025Z,23.71
2023-05-09T05:26:16.883Z,23.67
2023-05-09T05:27:16.946Z,23.93
2023-05-09T05:28:15.981Z,23.99
2023-05-09T05:29:17.046Z,24.11
2023-05-09T05:30:16.979Z,25.10
2023-05-09T05:31:17.036Z,26.70
2023-05-09T05:32:17.083Z,24.00
2023-05-09T05:33:17.141Z,23.64
2023-05-09T05:34:17.180Z,23.43
2023-05-09T05:35:17.560Z,23.89
2023-05-09T05:36:17.238Z,22.69
2023-05-09T05:37:16.233Z,22.99
2023-05-09T05:38:17.333Z,23.23
2023-05-09T05:39:16.348Z,25.73
2023-05-09T05:40:17.390Z,25.28
2023-05-09T05:41:17.388Z,25.07
2023-05-09T05:42:17.428Z,25.72
2023-05-09T05:43:17.477Z,25.44
2023-05-09T05:44:16.521Z,25.92
2023-05-09T05:45:16.795Z,24.49
2023-05-09T05:46:17.621Z,26.33
2023-05-09T05:47:17.652Z,26.69
2023-05-09T05:48:16.841Z,25.20
2023-05-09T05:49:16.612Z,27.02
2023-05-09T05:50:16.622Z,26.84
2023-05-09T05:51:17.730Z,28.36
2023-05-09T05:52:16.628Z,28.15
2023-05-09T05:53:16.650Z,31.24
2023-05-09T05:54:17.687Z,28.30
2023-05-09T05:55:17.864Z,29.67
2023-05-09T05:56:17.690Z,28.48
2023-05-09T05:57:16.694Z,22.87
2023-05-09T05:58:17.694Z,23.99
2023-05-09T05:59:17.738Z,26.99
2023-05-09T06:00:17.749Z,25.68
2023-05-09T06:01:17.724Z,27.35
2023-05-09T06:02:17.779Z,27.36
2023-05-09T06:03:16.786Z,26.37
2023-05-09T06:04:16.765Z,27.06
2023-05-09T06:05:17.771Z,27.35
2023-05-09T06:06:17.826Z,25.65
2023-05-09T06:07:17.952Z,23.85
2023-05-09T06:09:50.539Z,11.93
2023-05-09T06:10:51.724Z,25.86
2023-05-09T06:11:50.562Z,25.70
2023-05-09T06:12:52.126Z,25.56
2023-05-09T06:13:54.139Z,28.35
2023-05-09T06:14:57.829Z,26.88
2023-05-09T06:17:10.023Z,29.50
2023-05-09T06:20:47.964Z,31.73
2023-05-09T06:21:49.123Z,28.96
2023-05-09T06:22:48.885Z,28.96
2023-05-09T06:24:05.813Z,27.30
2023-05-09T06:24:48.859Z,27.36
2023-05-09T06:25:48.852Z,28.32
2023-05-09T06:26:48.830Z,27.29
2023-05-09T06:27:47.926Z,28.71
2023-05-09T06:28:47.921Z,29.26
2023-05-09T06:29:47.901Z,28.27
2023-05-09T06:30:48.509Z,27.31
2023-05-09T06:31:49.103Z,27.74
2023-05-09T06:32:48.109Z,28.41
2023-05-09T06:33:48.809Z,29.06
2023-05-09T06:34:47.797Z,28.68
2023-05-09T06:35:48.807Z,26.01
2023-05-09T06:36:47.808Z,27.83
2023-05-09T06:37:49.291Z,30.64
2023-05-09T06:38:48.875Z,26.90
2023-05-09T06:39:47.765Z,26.80
2023-05-09T06:40:48.768Z,27.67
2023-05-09T06:41:48.778Z,27.65
2023-05-09T06:42:47.731Z,28.01
2023-05-09T06:43:49.953Z,26.02
2023-05-09T06:44:48.748Z,28.75
2023-05-09T06:45:48.713Z,29.23
2023-05-09T06:46:47.723Z,27.64
2023-05-09T06:47:48.714Z,27.33
2023-05-09T06:48:48.704Z,27.61
2023-05-09T06:49:48.706Z,27.81
2023-05-09T06:50:48.723Z,27.44
2023-05-09T06:55:16.941Z,27.00
2023-05-09T06:56:19.469Z,29.07
2023-05-09T06:57:17.195Z,26.09
2023-05-09T06:58:17.121Z,27.04
2023-05-09T06:59:16.105Z,26.39
2023-05-09T07:00:16.619Z,26.15
2023-05-09T07:01:16.145Z,26.86
2023-05-09T07:02:17.236Z,28.33
2023-05-09T07:03:17.186Z,27.25
2023-05-09T07:04:17.092Z,26.02
2023-05-09T07:05:17.434Z,27.53
2023-05-09T07:07:35.425Z,25.60
2023-05-09T07:08:35.983Z,26.40
2023-05-09T07:09:36.032Z,27.94
2023-05-09T07:10:35.080Z,28.02
2023-05-09T07:12:54.000Z,26.48
2023-05-09T07:13:54.017Z,27.14
2023-05-09T07:14:55.012Z,27.53
2023-05-09T07:15:54.307Z,26.85
2023-05-09T07:18:13.016Z,24.53
2023-05-09T07:19:12.931Z,22.85
2023-05-09T07:20:15.111Z,22.50
2023-05-09T07:21:13.594Z,21.91
2023-05-09T07:22:12.989Z,24.12
2023-05-09T07:23:14.411Z,23.28
2023-05-09T07:24:14.125Z,24.26
2023-05-09T07:25:13.178Z,23.46
2023-05-09T07:26:13.977Z,23.28
2023-05-09T07:27:13.924Z,19.52
2023-05-09T07:28:13.100Z,16.92
2023-05-09T07:29:13.991Z,17.36
2023-05-09T07:30:14.312Z,17.65
2023-05-09T07:31:13.168Z,17.57
2023-05-09T07:32:13.271Z,18.02
2023-05-09T07:33:14.338Z,17.15
2023-05-09T07:34:27.557Z,16.31
2023-05-09T07:39:11.229Z,23.12
2023-05-09T07:40:12.117Z,21.57
2023-05-09T10:06:41.316Z,4.63
2023-05-09T10:07:41.177Z,11.41
2023-05-09T10:08:42.185Z,12.21
2023-05-09T10:09:42.157Z,9.92
2023-05-09T10:10:41.166Z,10.05
2023-05-09T10:11:42.134Z,9.90
2023-05-09T10:12:42.172Z,10.16
2023-05-09T10:13:42.154Z,10.83
2023-05-09T10:14:41.129Z,10.31
2023-05-09T10:15:53.021Z,8.74
2023-05-09T10:16:44.283Z,8.29
2023-05-09T10:17:41.295Z,8.21
2023-05-09T10:18:41.277Z,8.75
2023-05-09T10:19:41.095Z,8.96
2023-05-09T10:20:42.089Z,9.81
2023-05-09T10:21:42.074Z,9.31
2023-05-09T10:22:42.221Z,8.91
2023-05-09T10:23:41.073Z,8.87
2023-05-09T10:24:42.093Z,7.53
2023-05-09T10:25:42.069Z,7.41
2023-05-09T10:26:41.054Z,6.26
2023-05-09T10:27:42.026Z,6.75
2023-05-09T10:28:42.023Z,6.07
2023-05-09T10:29:41.009Z,5.18
2023-05-09T10:30:41.024Z,5.54
2023-05-09T10:31:41.078Z,5.15
2023-05-09T10:32:42.024Z,5.60
2023-05-09T10:33:41.982Z,6.13
2023-05-09T10:34:41.979Z,5.36
2023-05-09T10:35:41.969Z,5.32
2023-05-09T10:36:41.994Z,4.41
2023-05-09T10:37:41.981Z,3.88
2023-05-09T10:38:42.053Z,4.61
2023-05-09T10:39:41.933Z,4.16
2023-05-09T10:40:40.935Z,4.35
2023-05-09T10:41:40.907Z,4.51
2023-05-09T10:42:40.934Z,3.38
2023-05-09T10:43:40.908Z,3.16
2023-05-09T10:44:41.936Z,4.17
2023-05-09T10:45:42.288Z,3.77
2023-05-09T10:46:40.967Z,3.51
2023-05-09T10:47:41.950Z,3.70
2023-05-09T10:48:40.859Z,4.22
2023-05-09T10:49:41.861Z,4.03
2023-05-09T10:50:40.897Z,4.39
2023-05-09T10:51:41.886Z,4.60
2023-05-09T10:52:41.954Z,4.64
2023-05-09T10:53:40.995Z,3.97
2023-05-09T10:54:41.947Z,5.04
2023-05-09T10:55:40.904Z,4.30
2023-05-09T10:56:40.868Z,5.45
2023-05-09T10:57:41.825Z,4.98
2023-05-09T10:58:41.829Z,3.96
2023-05-09T10:59:41.830Z,3.44
2023-05-09T11:00:40.857Z,2.45
2023-05-09T11:01:40.902Z,2.81
2023-05-09T11:02:42.022Z,2.53
2023-05-09T11:03:42.040Z,2.79
2023-05-09T11:04:40.974Z,2.59
2023-05-09T11:05:42.024Z,2.52
2023-05-09T11:06:41.088Z,2.86
2023-05-09T11:07:42.048Z,2.64
2023-05-09T11:08:42.033Z,3.00
2023-05-09T11:09:42.066Z,2.98
2023-05-09T11:10:42.198Z,3.40
2023-05-09T11:11:42.072Z,3.29
2023-05-09T11:12:41.177Z,3.55
2023-05-09T11:13:42.127Z,2.92
2023-05-09T11:14:41.160Z,2.86
2023-05-09T11:15:42.214Z,2.38
2023-05-09T11:16:41.253Z,2.15
2023-05-09T11:17:41.289Z,2.65
2023-05-09T11:18:41.272Z,2.48
2023-05-09T11:19:41.292Z,2.28
2023-05-09T11:20:41.427Z,3.12
2023-05-09T11:21:41.566Z,2.06
2023-05-09T11:22:42.375Z,1.97
2023-05-09T11:23:41.442Z,2.62
2023-05-09T11:24:42.450Z,2.73
2023-05-09T11:25:42.505Z,2.89
2023-05-09T11:26:42.640Z,2.90
2023-05-09T11:27:42.622Z,3.22
2023-05-09T11:28:42.921Z,2.49
2023-05-09T11:29:42.589Z,2.58
2023-05-09T11:30:41.752Z,2.96
2023-05-09T11:31:42.727Z,2.99
2023-05-09T11:32:42.798Z,3.22
2023-05-09T11:33:41.781Z,2.25
2023-05-09T11:34:41.789Z,2.08
2023-05-09T11:35:42.934Z,2.02
2023-05-09T11:36:42.317Z,2.51
2023-05-09T11:37:42.942Z,2.10
2023-05-09T11:38:42.904Z,2.31
2023-05-09T11:39:42.933Z,2.35
2023-05-09T11:40:42.952Z,2.26
2023-05-09T11:41:43.339Z,2.07
2023-05-09T11:42:43.162Z,2.39
2023-05-09T11:43:43.062Z,2.66
2023-05-09T11:44:42.074Z,2.82
2023-05-09T11:45:42.138Z,2.10
2023-05-09T11:46:43.100Z,2.20
2023-05-09T11:47:43.124Z,2.10
2023-05-09T11:48:42.198Z,1.80
2023-05-09T11:49:42.255Z,1.73
2023-05-09T11:50:43.238Z,1.93
2023-05-09T11:51:43.236Z,2.19
2023-05-09T11:52:43.267Z,1.81
2023-05-09T11:53:42.306Z,1.98
2023-05-09T11:54:43.352Z,2.04
2023-05-09T11:55:42.450Z,1.99
2023-05-09T11:56:43.450Z,1.56
2023-05-09T11:57:42.443Z,1.77
2023-05-09T11:58:43.583Z,1.62
2023-05-09T11:59:42.580Z,1.61
2023-05-09T12:00:42.524Z,2.07
2023-05-09T12:01:42.646Z,2.17
2023-05-09T12:02:43.759Z,2.39
2023-05-09T12:03:42.684Z,2.59
2023-05-09T12:04:43.862Z,2.23
2023-05-09T12:07:01.818Z,2.33
2023-05-09T12:08:02.502Z,1.99
2023-05-09T12:09:02.703Z,2.12
2023-05-09T12:10:02.635Z,2.15
2023-05-09T12:11:01.473Z,2.19
2023-05-09T12:12:02.372Z,2.52
2023-05-09T12:13:02.416Z,2.89
2023-05-09T12:14:02.504Z,1.92
2023-05-09T12:15:02.341Z,1.71
2023-05-09T12:16:02.398Z,2.09
2023-05-09T12:17:02.317Z,1.71
2023-05-09T12:18:01.350Z,1.93
2023-05-09T12:19:02.418Z,1.91
2023-05-09T12:20:01.625Z,2.43
2023-05-09T12:21:01.336Z,1.68
2023-05-09T12:22:02.272Z,1.92
2023-05-09T12:23:02.310Z,1.78
2023-05-09T12:24:02.275Z,1.61
2023-05-09T12:25:02.255Z,1.63
2023-05-09T12:26:02.283Z,1.63
2023-05-09T12:27:02.257Z,1.80
2023-05-09T12:28:02.229Z,2.10
2023-05-09T12:29:02.241Z,2.03
2023-05-09T12:30:02.355Z,1.92
2023-05-09T12:31:01.272Z,1.82
2023-05-09T12:32:02.249Z,2.01
2023-05-09T12:33:02.290Z,1.50
2023-05-09T12:34:03.334Z,1.34
2023-05-09T12:38:36.158Z,1.07
2023-05-09T12:39:35.977Z,1.92
2023-05-09T12:43:12.499Z,1.07
2023-05-09T12:44:11.873Z,1.83
2023-05-09T12:45:12.244Z,2.38
2023-05-09T12:46:13.264Z,1.96
2023-05-09T12:47:13.937Z,2.25
2023-05-09T12:48:13.091Z,2.21
2023-05-09T12:49:11.880Z,2.58
2023-05-09T12:50:12.391Z,2.02
2023-05-09T12:51:12.790Z,1.89
2023-05-09T12:52:12.313Z,1.80
2023-05-09T12:53:12.892Z,1.39
2023-05-09T12:54:12.916Z,1.83
2023-05-09T12:55:13.167Z,1.73
2023-05-09T12:56:12.968Z,1.72
2023-05-09T12:57:12.816Z,1.45
2023-05-09T12:58:12.824Z,1.47
2023-05-09T12:59:12.853Z,1.46
2023-05-09T13:00:13.192Z,1.76
2023-05-09T13:01:13.033Z,2.13
2023-05-09T13:02:11.991Z,1.83
2023-05-09T13:03:13.026Z,2.00
2023-05-09T13:04:13.254Z,1.58
2023-05-09T13:05:13.482Z,1.86
2023-05-09T13:06:13.109Z,1.64
2023-05-09T13:07:13.549Z,1.58
2023-05-09T13:08:13.196Z,1.57
2023-05-09T13:09:13.373Z,1.72
2023-05-09T13:10:12.707Z,1.62
2023-05-09T13:12:31.047Z,1.85
2023-05-09T13:13:32.003Z,1.07
2023-05-09T13:14:31.059Z,1.49
2023-05-09T13:15:32.032Z,1.28
2023-05-09T13:16:31.161Z,1.35
2023-05-09T13:17:31.072Z,1.80
2023-05-09T13:18:31.972Z,1.92
2023-05-09T13:19:30.963Z,1.57
2023-05-09T13:20:31.052Z,1.37
2023-05-09T13:21:32.108Z,1.93
2023-05-09T13:22:32.035Z,1.55
2023-05-09T13:23:31.945Z,1.66
2023-05-09T13:24:30.989Z,1.47
2023-05-09T13:25:31.912Z,1.51
2023-05-09T13:26:31.925Z,1.59
2023-05-09T13:27:30.973Z,1.33
2023-05-09T13:28:30.913Z,1.53
2023-05-09T13:29:30.908Z,1.53
2023-05-09T13:30:31.917Z,1.55
2023-05-09T13:31:31.913Z,1.34
2023-05-09T13:32:32.150Z,1.53
2023-05-09T13:33:30.921Z,2.24
2023-05-09T13:34:30.929Z,1.68
2023-05-09T13:35:31.862Z,1.63
2023-05-09T13:36:30.836Z,1.42
2023-05-09T13:37:31.855Z,1.89
2023-05-09T13:38:31.821Z,1.27
2023-05-09T13:39:31.817Z,1.49
2023-05-09T13:40:30.885Z,1.69
2023-05-09T13:41:31.818Z,1.91
2023-05-09T13:42:30.813Z,1.83
2023-05-09T13:43:30.799Z,1.70
2023-05-09T13:44:31.804Z,1.69
2023-05-09T13:45:31.770Z,1.53
2023-05-09T13:46:30.841Z,1.79
2023-05-09T13:47:30.808Z,1.70
2023-05-09T13:48:31.980Z,1.51
2023-05-09T13:49:30.914Z,1.39
2023-05-09T13:50:30.873Z,1.79
2023-05-09T13:51:31.897Z,1.74
2023-05-09T13:52:31.941Z,1.31
2023-05-09T13:53:32.058Z,1.67
2023-05-09T13:54:31.982Z,1.79
2023-05-09T13:55:31.992Z,1.41
2023-05-09T13:56:31.979Z,2.70
2023-05-09T13:57:32.018Z,2.03
2023-05-09T13:58:32.002Z,1.52
2023-05-09T13:59:31.029Z,1.60
2023-05-09T14:00:31.072Z,1.79
2023-05-09T14:01:32.197Z,1.60
2023-05-09T14:02:32.134Z,1.56
2023-05-09T14:03:32.155Z,1.58
2023-05-09T14:04:32.187Z,1.86
2023-05-09T14:05:31.158Z,1.47
2023-05-09T14:06:31.201Z,1.78
2023-05-09T14:07:32.308Z,2.13
2023-05-09T14:08:32.297Z,1.56
2023-05-09T14:09:32.316Z,1.59
2023-05-09T14:10:32.380Z,1.64
2023-05-09T14:11:32.415Z,1.48
2023-05-09T14:12:32.495Z,1.34
2023-05-09T14:13:32.574Z,1.50
2023-05-09T14:14:32.568Z,1.58
2023-05-09T14:15:31.540Z,1.70
2023-05-09T14:16:32.621Z,1.64
2023-05-09T14:17:31.512Z,1.30
2023-05-09T14:18:32.626Z,1.88
2023-05-09T14:19:31.555Z,1.90
2023-05-09T14:20:31.700Z,1.43
2023-05-09T14:21:32.757Z,1.77
2023-05-09T14:22:32.660Z,1.65
2023-05-09T14:23:31.784Z,1.66
2023-05-09T14:24:32.780Z,1.46
2023-05-09T14:25:32.808Z,1.87
2023-05-09T14:26:32.836Z,1.65
2023-05-09T14:27:32.840Z,1.95
2023-05-09T14:28:31.863Z,1.76
2023-05-09T14:29:32.873Z,1.92
2023-05-09T14:30:31.914Z,1.91
2023-05-09T14:31:32.006Z,1.84
2023-05-09T14:32:31.992Z,2.07
2023-05-09T14:33:32.987Z,2.35
2023-05-09T14:34:32.011Z,2.06
2023-05-09T14:35:33.087Z,1.97
2023-05-09T14:36:33.219Z,1.67
2023-05-09T14:37:33.085Z,2.12
2023-05-09T14:38:33.091Z,1.84
2023-05-09T14:39:33.154Z,2.11
2023-05-09T14:40:33.168Z,1.90
2023-05-09T14:41:33.222Z,2.72
2023-05-09T14:42:32.229Z,2.19
2023-05-09T14:43:32.213Z,2.36
2023-05-09T14:44:32.305Z,2.13
2023-05-09T14:45:33.308Z,2.11
2023-05-09T14:46:32.403Z,1.83
2023-05-09T14:47:32.384Z,2.13
2023-05-09T14:48:33.411Z,2.80
2023-05-09T14:49:32.498Z,2.46
2023-05-09T14:50:32.514Z,2.53
2023-05-09T14:51:33.521Z,2.78
2023-05-09T14:52:32.678Z,2.25
2023-05-09T14:53:33.573Z,2.84
2023-05-09T14:54:32.597Z,2.57
2023-05-09T14:55:32.620Z,2.61
2023-05-09T14:56:32.713Z,2.42
2023-05-09T14:57:33.726Z,2.04
2023-05-09T14:58:33.733Z,2.56
2023-05-09T14:59:34.767Z,2.01
2023-05-09T15:00:32.754Z,2.61
2023-05-09T15:01:32.913Z,1.94
2023-05-09T15:02:33.809Z,2.40
2023-05-09T15:03:33.733Z,2.00
2023-05-09T15:04:32.789Z,2.67
2023-05-09T15:05:33.729Z,2.30
2023-05-09T15:06:33.717Z,2.31
2023-05-09T15:07:33.729Z,2.29
2023-05-09T15:08:33.809Z,2.18
2023-05-09T15:09:32.680Z,2.49
2023-05-09T15:10:32.694Z,2.08
2023-05-09T15:11:46.688Z,2.15
2023-05-09T15:12:33.667Z,2.82
2023-05-09T15:13:33.777Z,2.64
2023-05-09T15:14:33.691Z,2.38
2023-05-09T15:15:33.651Z,2.83
2023-05-09T15:16:32.698Z,2.15
2023-05-09T15:17:32.645Z,2.64
2023-05-09T15:18:32.625Z,2.50
2023-05-09T15:19:33.634Z,2.35
2023-05-09T15:20:32.632Z,2.48
2023-05-09T15:21:32.610Z,2.36
2023-05-09T15:22:33.618Z,2.45
2023-05-09T15:23:33.634Z,2.34
2023-05-09T15:24:33.706Z,2.17
2023-05-09T15:25:32.582Z,3.19
2023-05-09T15:26:33.594Z,3.10
2023-05-09T15:27:32.565Z,2.56
2023-05-09T15:28:33.556Z,3.10
2023-05-09T15:29:33.552Z,2.43
